Time;durP1;ratioP1;P1;durP2;ratioP2;P2;SDS_P1;SDS_P2;PMS_P1;PMS_P2;Temp;Humidity;BMP_temperature;BMP_pressure;BME280_temperature;BME280_humidity;BME280_pressure;Samples;Min_cycle;Max_cycle;Signal;HPM_P1;HPM_P2
2022/09/30 00:01:24;;;;;;;;;;;;;;;21.02;44.10;94713.31;10520672;28;3290;-47
2022/09/30 00:06:25;;;;;;;;;;;;;;;21.01;43.81;94715.16;10515966;28;3583;-50
2022/09/30 00:11:27;;;;;;;;;;;;;;;21.00;43.83;94708.31;10516404;28;3424;-47
2022/09/30 00:16:28;;;;;;;;;;;;;;;20.98;43.97;94710.47;10531062;28;3341;-45
2022/09/30 00:21:29;;;;;;;;;;;;;;;20.97;43.64;94718.69;10518673;28;3190;-47
2022/09/30 00:26:29;;;;;;;;;;;;;;;20.95;43.74;94711.09;10518330;28;3641;-49
2022/09/30 00:31:31;;;;;;;;;;;;;;;20.94;44.08;94716.63;10523062;28;3396;-46
2022/09/30 00:36:36;;;;;;;;;;;;;;;20.90;43.84;94720.94;10513316;28;2987;-47
2022/09/30 00:41:37;;;;;;;;;;;;;;;20.91;43.87;94715.41;10528374;28;3400;-48
2022/09/30 00:46:39;;;;;;;;;;;;;;;20.90;43.69;94715.69;10524685;28;3595;-46
2022/09/30 00:51:44;;;;;;;;;;;;;;;20.90;43.72;94708.56;10540758;28;3011;-47
2022/09/30 00:56:45;;;;;;;;;;;;;;;20.88;43.88;94713.34;10524376;28;2995;-49
2022/09/30 01:01:45;;;;;;;;;;;;;;;20.89;43.83;94714.94;10522676;28;3408;-46
2022/09/30 01:06:46;;;;;;;;;;;;;;;20.87;43.88;94738.16;10524836;28;2971;-48
2022/09/30 01:11:46;;;;;;;;;;;;;;;20.85;43.90;94750.06;10518757;28;2979;-46
2022/09/30 01:16:46;;;;;;;;;;;;;;;20.87;43.50;94751.31;10519255;28;3286;-49
2022/09/30 01:21:46;;;;;;;;;;;;;;;20.87;43.76;94753.19;10521908;28;3308;-45
2022/09/30 01:26:50;;;;;;;;;;;;;;;20.87;43.76;94751.31;10513840;28;3334;-47
2022/09/30 01:32:02;;;;;;;;;;;;;;;20.84;43.60;94753.75;10514064;28;3358;-48
2022/09/30 01:37:02;;;;;;;;;;;;;;;20.82;43.68;94751.44;10513154;28;3234;-46
2022/09/30 01:42:23;;;;;;;;;;;;;;;20.82;43.75;94761.97;10527036;28;3274;-47
2022/09/30 01:47:24;;;;;;;;;;;;;;;20.82;43.83;94766.44;10530940;28;3230;-50
2022/09/30 01:52:36;;;;;;;;;;;;;;;20.79;43.75;94765.19;10520436;28;3289;-46
2022/09/30 01:57:42;;;;;;;;;;;;;;;20.80;43.46;94766.75;10498575;28;3366;-47
2022/09/30 02:02:49;;;;;;;;;;;;;;;20.81;43.50;94770.16;10505608;28;3232;-46
2022/09/30 02:08:03;;;;;;;;;;;;;;;20.78;43.56;94776.03;10528094;28;3300;-46
2022/09/30 02:13:07;;;;;;;;;;;;;;;20.78;43.59;94763.63;10528643;28;3460;-45
2022/09/30 02:18:11;;;;;;;;;;;;;;;20.78;43.75;94765.50;10546057;28;3413;-48
2022/09/30 02:23:17;;;;;;;;;;;;;;;20.78;43.59;94760.22;10536292;28;3292;-45
2022/09/30 02:28:25;;;;;;;;;;;;;;;20.76;43.34;94757.88;10538179;28;3328;-45
2022/09/30 02:33:31;;;;;;;;;;;;;;;20.73;43.59;94753.22;10533028;28;3039;-47
2022/09/30 02:38:35;;;;;;;;;;;;;;;20.73;43.36;94747.19;10540102;28;4223;-47
2022/09/30 02:43:36;;;;;;;;;;;;;;;20.73;43.42;94761.09;10521034;28;3397;-45
2022/09/30 02:48:47;;;;;;;;;;;;;;;20.72;43.53;94761.41;10522702;28;3036;-49
2022/09/30 02:53:51;;;;;;;;;;;;;;;20.71;43.65;94768.53;10517131;28;3285;-45
2022/09/30 02:58:51;;;;;;;;;;;;;;;20.70;43.44;94769.63;10523005;28;3285;-46
2022/09/30 03:03:52;;;;;;;;;;;;;;;20.71;43.51;94778.31;10520916;28;3233;-45
2022/09/30 03:08:53;;;;;;;;;;;;;;;20.69;43.44;94783.09;10535745;28;3304;-45
2022/09/30 03:13:57;;;;;;;;;;;;;;;20.68;43.42;94790.19;10518150;28;3652;-46
2022/09/30 03:19:09;;;;;;;;;;;;;;;20.68;43.28;94798.09;10532051;28;3265;-45
2022/09/30 03:24:28;;;;;;;;;;;;;;;20.67;43.21;94796.53;10520574;28;3032;-49
2022/09/30 03:29:34;;;;;;;;;;;;;;;20.65;43.37;94809.22;10530974;28;3364;-46
2022/09/30 03:34:40;;;;;;;;;;;;;;;20.64;43.24;94818.22;10540572;27;3326;-49
2022/09/30 03:39:43;;;;;;;;;;;;;;;20.67;43.23;94822.09;10523458;28;3273;-46
2022/09/30 03:44:51;;;;;;;;;;;;;;;20.79;43.02;94825.00;10503127;28;3031;-46
2022/09/30 03:49:53;;;;;;;;;;;;;;;20.88;42.88;94823.22;10521735;28;3612;-45
2022/09/30 03:54:55;;;;;;;;;;;;;;;20.94;42.96;94822.00;10547142;28;2978;-50
2022/09/30 03:59:56;;;;;;;;;;;;;;;20.98;42.66;94823.75;10512989;28;3258;-47
2022/09/30 04:04:57;;;;;;;;;;;;;;;21.01;42.50;94825.03;10526138;28;2986;-45
2022/09/30 04:09:58;;;;;;;;;;;;;;;21.05;42.26;94839.97;10522696;28;3046;-50
2022/09/30 04:14:58;;;;;;;;;;;;;;;21.09;42.22;94845.44;10546791;27;3492;-50
2022/09/30 04:19:58;;;;;;;;;;;;;;;21.15;42.35;94851.34;10525805;28;3010;-48
2022/09/30 04:24:59;;;;;;;;;;;;;;;21.16;41.88;94850.28;10520267;28;2998;-46
2022/09/30 04:29:59;;;;;;;;;;;;;;;21.18;41.95;94841.00;10551410;28;3499;-46
2022/09/30 04:34:59;;;;;;;;;;;;;;;21.22;42.04;94841.97;10540493;28;3495;-46
2022/09/30 04:40:01;;;;;;;;;;;;;;;21.25;42.08;94859.81;10539743;28;2947;-48
2022/09/30 04:45:02;;;;;;;;;;;;;;;21.28;41.65;94858.44;10548343;28;2991;-46
2022/09/30 04:50:03;;;;;;;;;;;;;;;21.28;41.15;94868.97;10525203;28;3408;-47
2022/09/30 04:55:04;;;;;;;;;;;;;;;21.30;42.09;94872.09;10521393;28;3350;-44
2022/09/30 05:00:07;;;;;;;;;;;;;;;21.35;41.99;94879.91;10538231;28;2998;-46
2022/09/30 05:05:08;;;;;;;;;;;;;;;21.37;41.42;94883.03;10517784;28;3018;-48
2022/09/30 05:10:10;;;;;;;;;;;;;;;21.37;41.47;94875.88;10528756;28;3265;-46
2022/09/30 05:15:10;;;;;;;;;;;;;;;21.40;41.68;94877.13;10523354;28;3261;-49
2022/09/30 05:20:11;;;;;;;;;;;;;;;21.35;41.37;94879.91;10527157;28;3302;-47
2022/09/30 05:25:11;;;;;;;;;;;;;;;21.33;41.97;94896.00;10535338;28;3042;-48
2022/09/30 05:30:21;;;;;;;;;;;;;;;21.37;42.06;94901.47;10542161;27;3399;-45
2022/09/30 05:35:21;;;;;;;;;;;;;;;21.43;41.92;94897.66;10535956;28;3046;-45
2022/09/30 05:40:22;;;;;;;;;;;;;;;21.44;42.01;94907.88;10541083;28;3360;-47
2022/09/30 05:45:22;;;;;;;;;;;;;;;21.45;41.49;94906.78;10541728;28;3340;-48
2022/09/30 05:50:23;;;;;;;;;;;;;;;21.47;41.33;94911.78;10534981;28;3337;-49
2022/09/30 05:55:23;;;;;;;;;;;;;;;21.46;41.07;94926.81;10532824;28;3310;-46
2022/09/30 06:00:24;;;;;;;;;;;;;;;21.44;41.12;94928.97;10543946;28;3383;-47
2022/09/30 06:05:24;;;;;;;;;;;;;;;21.51;41.19;94942.53;10548166;28;2955;-48
2022/09/30 06:10:25;;;;;;;;;;;;;;;21.53;41.34;94939.59;10534998;28;3286;-45
2022/09/30 06:15:26;;;;;;;;;;;;;;;21.53;41.36;94937.75;10543305;28;3292;-47
2022/09/30 06:20:26;;;;;;;;;;;;;;;21.56;41.38;94949.53;10540295;28;3154;-45
2022/09/30 06:25:29;;;;;;;;;;;;;;;21.57;41.67;94957.16;10532859;28;3013;-48
2022/09/30 06:30:29;;;;;;;;;;;;;;;21.55;41.70;94953.25;10519881;28;3449;-48
2022/09/30 06:35:30;;;;;;;;;;;;;;;21.52;41.57;94964.38;10517412;28;3300;-48
2022/09/30 06:40:30;;;;;;;;;;;;;;;21.47;41.56;94956.59;10509647;28;3082;-48
2022/09/30 06:45:31;;;;;;;;;;;;;;;21.45;42.04;94962.16;10514656;28;3221;-47
2022/09/30 06:50:32;;;;;;;;;;;;;;;21.44;42.01;94980.91;10512760;28;3238;-48
2022/09/30 06:55:32;;;;;;;;;;;;;;;21.42;42.19;94985.72;10527813;28;3245;-46
2022/09/30 07:00:33;;;;;;;;;;;;;;;21.39;42.09;94984.44;10535284;28;3519;-47
2022/09/30 07:05:33;;;;;;;;;;;;;;;21.40;41.99;94990.50;10535079;28;3019;-45
2022/09/30 07:10:34;;;;;;;;;;;;;;;21.42;41.95;94990.97;10518659;28;3550;-47
2022/09/30 07:15:34;;;;;;;;;;;;;;;21.35;42.07;95001.94;10522706;28;3281;-47
2022/09/30 07:20:35;;;;;;;;;;;;;;;21.33;42.14;95008.59;10524077;28;3285;-48
2022/09/30 07:25:36;;;;;;;;;;;;;;;21.30;42.26;95014.44;10518332;28;3341;-46
2022/09/30 07:30:36;;;;;;;;;;;;;;;21.27;42.22;95012.41;10519995;28;2971;-45
2022/09/30 07:35:36;;;;;;;;;;;;;;;21.29;42.35;95002.34;10539400;28;3304;-44
2022/09/30 07:40:37;;;;;;;;;;;;;;;21.26;42.22;95008.19;10523232;28;3273;-45
2022/09/30 07:45:42;;;;;;;;;;;;;;;21.27;42.04;94992.09;10522499;28;3311;-43
2022/09/30 07:50:44;;;;;;;;;;;;;;;21.29;41.92;95000.47;10539929;27;3272;-45
2022/09/30 07:55:44;;;;;;;;;;;;;;;21.26;42.13;95010.84;10519789;28;2983;-45
2022/09/30 08:00:48;;;;;;;;;;;;;;;21.27;42.16;95015.06;10523017;28;2975;-44
2022/09/30 08:05:48;;;;;;;;;;;;;;;21.32;41.94;95026.25;10523860;28;3369;-44
2022/09/30 08:10:48;;;;;;;;;;;;;;;21.31;41.92;95035.22;10519945;28;3126;-45
2022/09/30 08:15:49;;;;;;;;;;;;;;;21.29;41.91;95037.38;10528880;28;3026;-45
2022/09/30 08:20:49;;;;;;;;;;;;;;;21.33;41.69;95037.59;10534822;28;3316;-47
2022/09/30 08:25:49;;;;;;;;;;;;;;;21.31;41.90;95037.88;10523410;28;3519;-45
2022/09/30 08:30:49;;;;;;;;;;;;;;;21.37;41.98;95035.94;10522184;28;3773;-46
2022/09/30 08:35:50;;;;;;;;;;;;;;;21.36;41.75;95034.34;10522171;28;2962;-48
2022/09/30 08:41:10;;;;;;;;;;;;;;;21.44;41.95;95041.56;10520077;28;3401;-47
2022/09/30 08:46:14;;;;;;;;;;;;;;;21.44;41.72;95058.16;10510195;28;3322;-46
2022/09/30 08:51:23;;;;;;;;;;;;;;;21.43;41.70;95064.50;10497670;28;3528;-48
2022/09/30 08:56:29;;;;;;;;;;;;;;;21.45;41.78;95064.22;10510699;28;2999;-48
2022/09/30 09:01:33;;;;;;;;;;;;;;;21.37;41.96;95068.31;10526823;27;3653;-45
2022/09/30 09:06:38;;;;;;;;;;;;;;;21.36;42.23;95074.69;10522355;28;3362;-46
2022/09/30 09:11:48;;;;;;;;;;;;;;;21.35;41.96;95077.63;10508902;28;3521;-46
2022/09/30 09:17:07;;;;;;;;;;;;;;;21.34;42.08;95089.22;10514866;28;3054;-49
2022/09/30 09:22:07;;;;;;;;;;;;;;;21.32;42.28;95092.16;10518093;28;3607;-45
2022/09/30 09:27:18;;;;;;;;;;;;;;;21.32;42.37;95107.19;10525031;28;2987;-46
2022/09/30 09:32:19;;;;;;;;;;;;;;;21.31;42.31;95105.66;10517522;28;3088;-51
2022/09/30 09:43:02;;;;;;;;;;;;;;;21.27;42.40;95097.53;10516690;28;3019;-44
2022/09/30 09:48:07;;;;;;;;;;;;;;;21.23;42.69;95103.66;10525857;27;3334;-47
2022/09/30 09:53:24;;;;;;;;;;;;;;;21.22;42.62;95096.84;10509995;28;3063;-47
2022/09/30 09:58:25;;;;;;;;;;;;;;;21.24;42.56;95099.97;10493015;28;3551;-46
2022/09/30 10:03:27;;;;;;;;;;;;;;;21.20;43.07;95088.44;10512467;28;3289;-44
2022/09/30 10:08:28;;;;;;;;;;;;;;;21.23;43.24;95098.41;10515196;28;2994;-45
2022/09/30 10:13:31;;;;;;;;;;;;;;;21.19;43.33;95106.13;10521346;28;3002;-44
2022/09/30 10:18:35;;;;;;;;;;;;;;;21.22;43.27;95110.81;10517811;28;3406;-48
2022/09/30 10:23:38;;;;;;;;;;;;;;;21.24;43.18;95121.06;10529648;27;2986;-46
2022/09/30 10:28:45;;;;;;;;;;;;;;;21.23;43.36;95120.28;10519595;28;3261;-48
2022/09/30 10:33:47;;;;;;;;;;;;;;;21.24;43.28;95110.50;10518869;28;3405;-43
2022/09/30 10:38:47;;;;;;;;;;;;;;;21.23;43.78;95109.72;10537159;28;3307;-49
2022/09/30 10:43:49;;;;;;;;;;;;;;;21.20;43.55;95115.59;10516125;28;3288;-43
2022/09/30 10:48:49;;;;;;;;;;;;;;;21.21;43.52;95116.34;10517228;28;3254;-47
2022/09/30 10:53:50;;;;;;;;;;;;;;;21.21;43.63;95119.00;10539907;28;3027;-44
2022/09/30 10:58:50;;;;;;;;;;;;;;;21.18;43.70;95125.66;10516292;28;3372;-47
2022/09/30 11:04:02;;;;;;;;;;;;;;;21.18;43.78;95130.94;10524779;28;2924;-45
2022/09/30 11:09:04;;;;;;;;;;;;;;;21.18;43.60;95132.78;10522680;28;3293;-44
2022/09/30 11:14:08;;;;;;;;;;;;;;;21.17;43.72;95137.25;10522922;28;3033;-47
2022/09/30 11:19:09;;;;;;;;;;;;;;;21.19;43.15;95150.13;10506887;28;3021;-46
2022/09/30 11:24:15;;;;;;;;;;;;;;;21.17;43.30;95153.06;10501986;28;3059;-47
2022/09/30 11:29:34;;;;;;;;;;;;;;;21.23;43.39;95161.66;10503295;28;3232;-45
2022/09/30 11:34:42;;;;;;;;;;;;;;;21.21;43.15;95161.94;10514885;28;4122;-46
2022/09/30 11:39:42;;;;;;;;;;;;;;;21.22;43.34;95168.00;10532401;28;3264;-46
2022/09/30 11:44:43;;;;;;;;;;;;;;;21.24;43.14;95150.06;10530198;28;3269;-43
2022/09/30 11:50:22;;;;;;;;;;;;;;;21.22;43.36;95152.19;10549762;27;3300;-45
2022/09/30 11:55:25;;;;;;;;;;;;;;;21.20;43.15;95143.81;10428733;28;3026;-46
2022/09/30 12:00:26;;;;;;;;;;;;;;;21.19;43.32;95152.78;10507301;28;2995;-45
2022/09/30 12:05:45;;;;;;;;;;;;;;;21.18;43.09;95153.84;10520811;28;3301;-44
2022/09/30 12:10:48;;;;;;;;;;;;;;;21.21;43.16;95155.91;10496995;28;3339;-45
2022/09/30 12:15:49;;;;;;;;;;;;;;;21.17;42.94;95155.69;10512762;28;3305;-44
2022/09/30 12:20:54;;;;;;;;;;;;;;;21.22;42.97;95152.19;10530274;28;3003;-43
2022/09/30 12:25:58;;;;;;;;;;;;;;;21.22;42.84;95146.94;10503911;28;3341;-46
2022/09/30 12:31:18;;;;;;;;;;;;;;;21.22;43.05;95152.19;10506888;28;3309;-46
2022/09/30 12:36:21;;;;;;;;;;;;;;;21.25;42.76;95151.59;10495220;28;3281;-46
2022/09/30 12:41:40;;;;;;;;;;;;;;;21.24;42.85;95150.84;10518732;28;3238;-44
2022/09/30 12:47:02;;;;;;;;;;;;;;;21.27;42.96;95146.84;10501487;28;2958;-43
2022/09/30 12:52:04;;;;;;;;;;;;;;;21.31;42.91;95145.19;10511708;28;2995;-43
2022/09/30 12:57:07;;;;;;;;;;;;;;;21.35;42.64;95154.06;10531081;27;3583;-43
2022/09/30 13:02:17;;;;;;;;;;;;;;;21.35;42.50;95151.44;10517614;28;3309;-44
2022/09/30 13:07:20;;;;;;;;;;;;;;;21.32;42.69;95163.34;10530000;27;3527;-44
2022/09/30 13:12:24;;;;;;;;;;;;;;;21.32;43.00;95159.91;10523599;28;3329;-44
2022/09/30 13:17:25;;;;;;;;;;;;;;;21.32;42.87;95159.91;10535375;28;3170;-45
2022/09/30 13:22:29;;;;;;;;;;;;;;;21.32;42.83;95155.44;10524600;28;3288;-44
2022/09/30 13:27:33;;;;;;;;;;;;;;;21.28;43.30;95154.47;10515248;28;3130;-45
2022/09/30 13:32:36;;;;;;;;;;;;;;;21.33;43.08;95148.31;10500345;28;3017;-45
2022/09/30 13:37:37;;;;;;;;;;;;;;;21.29;43.54;95149.97;10528467;28;2998;-43
2022/09/30 13:42:39;;;;;;;;;;;;;;;21.26;43.66;95145.28;10512288;28;3242;-45
2022/09/30 13:47:54;;;;;;;;;;;;;;;21.24;43.64;95155.31;10510518;28;3011;-45
2022/09/30 13:52:56;;;;;;;;;;;;;;;21.21;43.92;95148.78;10517407;28;3026;-44
2022/09/30 13:57:59;;;;;;;;;;;;;;;21.21;43.77;95146.13;10529234;28;3154;-43
2022/09/30 14:03:02;;;;;;;;;;;;;;;21.18;43.93;95145.94;10510874;28;3289;-47
2022/09/30 14:08:21;;;;;;;;;;;;;;;21.18;43.74;95141.47;10515918;28;3451;-44
2022/09/30 14:13:25;;;;;;;;;;;;;;;21.15;43.73;95149.94;10507882;28;3007;-44
2022/09/30 14:18:30;;;;;;;;;;;;;;;21.13;44.11;95149.44;10511711;28;3480;-43
2022/09/30 14:23:30;;;;;;;;;;;;;;;21.16;43.96;95151.53;10529975;27;3210;-44
2022/09/30 14:28:35;;;;;;;;;;;;;;;21.16;43.64;95150.72;10524929;28;3548;-44
2022/09/30 14:33:35;;;;;;;;;;;;;;;21.20;43.72;95146.44;10537758;27;3312;-44
2022/09/30 14:38:37;;;;;;;;;;;;;;;21.21;43.67;95153.25;10512812;28;3300;-43
2022/09/30 14:43:39;;;;;;;;;;;;;;;21.18;43.61;95169.66;10519170;28;3304;-44
2022/09/30 14:48:41;;;;;;;;;;;;;;;21.23;43.46;95167.72;10523626;28;3237;-45
2022/09/30 14:53:51;;;;;;;;;;;;;;;21.22;43.63;95174.06;10504977;28;2951;-44
2022/09/30 14:58:51;;;;;;;;;;;;;;;21.24;43.43;95171.13;10527080;28;2951;-45
2022/09/30 15:03:54;;;;;;;;;;;;;;;21.24;43.33;95182.47;10523495;28;4006;-44
2022/09/30 15:09:07;;;;;;;;;;;;;;;21.23;43.41;95172.19;10523550;28;3371;-45
2022/09/30 15:14:11;;;;;;;;;;;;;;;21.23;43.44;95172.19;10516467;28;3321;-48
2022/09/30 15:19:16;;;;;;;;;;;;;;;21.25;43.30;95183.22;10539602;28;3349;-44
2022/09/30 15:24:17;;;;;;;;;;;;;;;21.23;43.58;95180.09;10514043;28;3372;-43
2022/09/30 15:29:17;;;;;;;;;;;;;;;21.22;44.06;95178.56;10550631;27;3409;-45
2022/09/30 15:34:18;;;;;;;;;;;;;;;21.20;43.76;95181.50;10545684;27;3366;-46
2022/09/30 15:39:21;;;;;;;;;;;;;;;21.18;43.92;95181.00;10543755;27;3300;-44
2022/09/30 15:44:36;;;;;;;;;;;;;;;21.20;43.67;95185.97;10523877;28;3022;-44
2022/09/30 15:49:47;;;;;;;;;;;;;;;21.19;43.83;95195.72;10543652;27;3317;-44
2022/09/30 15:54:48;;;;;;;;;;;;;;;21.17;43.64;95205.00;10530230;27;3596;-45
2022/09/30 16:00:00;;;;;;;;;;;;;;;21.20;43.91;95205.22;10532299;28;3093;-45
2022/09/30 16:05:01;;;;;;;;;;;;;;;21.20;43.95;95222.88;10518913;28;3289;-43
2022/09/30 16:10:02;;;;;;;;;;;;;;;21.18;43.70;95227.66;10529980;28;2941;-46
2022/09/30 16:15:05;;;;;;;;;;;;;;;21.20;43.80;95230.78;10505742;28;2995;-45
2022/09/30 16:20:19;;;;;;;;;;;;;;;21.20;43.79;95225.50;10518689;28;3509;-46
2022/09/30 16:25:26;;;;;;;;;;;;;;;21.21;44.22;95233.13;10516886;28;2998;-44
2022/09/30 16:30:27;;;;;;;;;;;;;;;21.24;44.61;95232.56;10527011;28;3139;-46
2022/09/30 16:35:28;;;;;;;;;;;;;;;21.20;44.92;95244.75;10528361;28;3308;-44
2022/09/30 16:40:28;;;;;;;;;;;;;;;21.20;45.08;95246.59;10518327;28;3360;-45
2022/09/30 16:45:29;;;;;;;;;;;;;;;21.20;44.99;95250.03;10501072;28;3293;-44
2022/09/30 16:50:35;;;;;;;;;;;;;;;21.23;44.72;95246.78;10516065;28;3397;-44
2022/09/30 16:55:35;;;;;;;;;;;;;;;21.22;45.01;95241.81;10508077;28;3312;-44
2022/09/30 17:00:43;;;;;;;;;;;;;;;21.26;45.02;95248.88;10515001;28;3252;-47
2022/09/30 17:05:44;;;;;;;;;;;;;;;21.23;44.94;95267.09;10513734;28;2983;-52
2022/09/30 17:10:48;;;;;;;;;;;;;;;21.23;45.17;95273.16;10509453;28;2995;-46
2022/09/30 17:15:49;;;;;;;;;;;;;;;21.23;44.90;95267.09;10522610;28;3280;-43
2022/09/30 17:20:54;;;;;;;;;;;;;;;21.22;45.02;95271.59;10508540;28;3004;-45
2022/09/30 17:25:54;;;;;;;;;;;;;;;21.22;45.20;95276.88;10525701;28;3238;-49
2022/09/30 17:30:55;;;;;;;;;;;;;;;21.23;45.25;95278.41;10526166;28;3526;-45
2022/09/30 17:35:58;;;;;;;;;;;;;;;21.20;44.94;95284.28;10527926;28;3377;-44
2022/09/30 17:46:19;;;;;;;;;;;;;;;21.41;45.23;95285.50;10523163;28;2927;-50
2022/09/30 17:51:20;;;;;;;;;;;;;;;21.64;44.46;95289.06;10524820;28;3253;-47
2022/09/30 17:56:21;;;;;;;;;;;;;;;21.73;44.67;95303.94;10511393;28;3267;-49
2022/09/30 18:01:21;;;;;;;;;;;;;;;21.73;44.24;95292.59;10514991;28;3545;-51
2022/09/30 18:06:22;;;;;;;;;;;;;;;21.75;44.30;95295.72;10503793;28;3309;-60
2022/09/30 18:11:22;;;;;;;;;;;;;;;21.81;43.97;95300.66;10531391;28;3367;-44
2022/09/30 18:16:23;;;;;;;;;;;;;;;21.63;44.67;95292.78;10517779;28;3464;-46
2022/09/30 18:21:23;;;;;;;;;;;;;;;21.53;44.70;95299.03;10514491;28;3269;-43
2022/09/30 18:26:24;;;;;;;;;;;;;;;21.46;44.85;95303.88;10517075;28;3154;-44
2022/09/30 18:31:28;;;;;;;;;;;;;;;21.45;45.00;95317.38;10522147;28;3241;-46
2022/09/30 18:36:31;;;;;;;;;;;;;;;21.40;44.96;95314.78;10536964;27;3075;-43
2022/09/30 18:41:31;;;;;;;;;;;;;;;21.38;45.18;95332.75;10524270;28;3506;-47
2022/09/30 18:46:32;;;;;;;;;;;;;;;21.35;45.35;95336.75;10529941;28;3359;-43
2022/09/30 18:51:32;;;;;;;;;;;;;;;21.33;45.38;95332.84;10513909;28;3018;-46
2022/09/30 18:56:32;;;;;;;;;;;;;;;21.35;45.17;95330.72;10524786;28;3235;-43
2022/09/30 19:01:32;;;;;;;;;;;;;;;21.35;45.17;95328.84;10515404;28;3258;-45
2022/09/30 19:06:33;;;;;;;;;;;;;;;21.35;45.13;95331.47;10511893;28;3424;-45
2022/09/30 19:11:34;;;;;;;;;;;;;;;21.36;45.23;95334.91;10520658;28;3301;-44
2022/09/30 19:16:36;;;;;;;;;;;;;;;21.35;45.15;95330.72;10521786;28;3026;-46
2022/09/30 19:21:36;;;;;;;;;;;;;;;21.36;44.97;95321.72;10521338;28;2980;-43
2022/09/30 19:26:37;;;;;;;;;;;;;;;21.37;44.82;95310.88;10528218;28;3406;-47
2022/09/30 19:31:37;;;;;;;;;;;;;;;21.37;44.75;95304.84;10522035;28;3361;-45
2022/09/30 19:36:38;;;;;;;;;;;;;;;21.37;45.13;95296.94;10524393;28;2936;-44
2022/09/30 19:41:38;;;;;;;;;;;;;;;21.36;44.68;95290.09;10519606;28;3002;-43
2022/09/30 19:46:40;;;;;;;;;;;;;;;21.37;44.88;95300.34;10528094;28;3050;-46
2022/09/30 19:51:40;;;;;;;;;;;;;;;21.37;44.68;95313.50;10535062;28;3054;-44
2022/09/30 19:56:40;;;;;;;;;;;;;;;21.35;44.65;95312.25;10504244;28;3286;-48
2022/09/30 20:01:41;;;;;;;;;;;;;;;21.34;44.64;95310.69;10506676;28;3002;-46
2022/09/30 20:06:41;;;;;;;;;;;;;;;21.32;44.79;95310.97;10520551;28;3277;-43
2022/09/30 20:11:41;;;;;;;;;;;;;;;21.33;45.01;95306.50;10505257;28;3292;-43
2022/09/30 20:16:47;;;;;;;;;;;;;;;21.37;44.75;95299.56;10513996;28;3252;-44
2022/09/30 20:21:48;;;;;;;;;;;;;;;21.35;44.92;95307.75;10534056;28;3297;-43
2022/09/30 20:26:49;;;;;;;;;;;;;;;21.37;44.90;95307.47;10528647;28;3042;-44
2022/09/30 20:31:50;;;;;;;;;;;;;;;21.35;44.65;95296.44;10542114;28;3465;-46
2022/09/30 20:36:50;;;;;;;;;;;;;;;21.33;44.51;95293.31;10527292;28;3399;-43
2022/09/30 20:41:50;;;;;;;;;;;;;;;21.32;44.65;95297.00;10538136;28;3241;-44
2022/09/30 20:46:51;;;;;;;;;;;;;;;21.31;44.72;95306.75;10542597;28;3094;-45
2022/09/30 20:51:51;;;;;;;;;;;;;;;21.31;44.61;95308.63;10533042;28;3292;-48
2022/09/30 20:56:52;;;;;;;;;;;;;;;21.31;44.70;95313.91;10530621;28;2991;-48
2022/09/30 21:01:52;;;;;;;;;;;;;;;21.29;44.74;95322.09;10534244;28;3203;-44
2022/09/30 21:06:54;;;;;;;;;;;;;;;21.25;44.71;95323.72;10548317;28;3249;-44
2022/09/30 21:11:54;;;;;;;;;;;;;;;21.25;44.50;95325.56;10518981;28;3396;-45
2022/09/30 21:16:55;;;;;;;;;;;;;;;21.23;44.66;95333.78;10544837;28;3046;-44
2022/09/30 21:21:55;;;;;;;;;;;;;;;21.23;44.64;95333.00;10534469;28;3026;-44
2022/09/30 21:26:55;;;;;;;;;;;;;;;21.21;44.55;95338.56;10528425;28;2967;-46
2022/09/30 21:31:56;;;;;;;;;;;;;;;21.20;44.75;95336.22;10511386;28;3388;-49
2022/09/30 21:36:56;;;;;;;;;;;;;;;21.19;44.36;95335.41;10513309;28;3195;-46
2022/09/30 21:41:57;;;;;;;;;;;;;;;21.18;44.52;95333.88;10522391;28;3229;-46
2022/09/30 21:46:57;;;;;;;;;;;;;;;21.16;44.62;95327.31;10498456;28;3022;-43
2022/09/30 21:51:57;;;;;;;;;;;;;;;21.16;44.45;95327.31;10519983;28;3615;-45
2022/09/30 21:56:57;;;;;;;;;;;;;;;21.14;44.31;95319.69;10509744;28;3308;-43
2022/09/30 22:01:58;;;;;;;;;;;;;;;21.13;44.47;95325.25;10511347;28;3357;-48
2022/09/30 22:06:58;;;;;;;;;;;;;;;21.13;44.55;95330.50;10510652;28;3106;-44
2022/09/30 22:11:58;;;;;;;;;;;;;;;21.11;44.33;95332.66;10520419;28;3446;-47
2022/09/30 22:16:58;;;;;;;;;;;;;;;21.08;44.28;95329.53;10511673;28;3293;-43
2022/09/30 22:22:00;;;;;;;;;;;;;;;21.10;44.60;95333.72;10512510;28;2972;-44
2022/09/30 22:27:03;;;;;;;;;;;;;;;21.08;44.27;95338.50;10519877;28;3258;-46
2022/09/30 22:32:04;;;;;;;;;;;;;;;21.05;44.29;95353.81;10522219;28;3392;-46
2022/09/30 22:42:25;;;;;;;;;;;;;;;21.05;44.43;95356.47;10505352;28;3016;-44
2022/09/30 22:47:25;;;;;;;;;;;;;;;21.02;44.23;95354.38;10514854;28;3348;-44
2022/09/30 22:52:26;;;;;;;;;;;;;;;21.03;44.41;95361.22;10503049;28;3366;-45
2022/09/30 22:57:26;;;;;;;;;;;;;;;21.00;44.50;95363.59;10520140;28;3009;-44
2022/09/30 23:02:26;;;;;;;;;;;;;;;21.00;44.38;95372.28;10514801;28;3077;-43
2022/09/30 23:07:29;;;;;;;;;;;;;;;20.98;44.40;95377.06;10511453;28;3437;-45
2022/09/30 23:12:31;;;;;;;;;;;;;;;20.96;44.21;95392.38;10517313;28;3371;-43
2022/09/30 23:17:32;;;;;;;;;;;;;;;20.96;44.36;95400.28;10516793;28;3000;-47
2022/09/30 23:22:33;;;;;;;;;;;;;;;20.95;44.12;95401.38;10511548;28;2940;-43
2022/09/30 23:27:33;;;;;;;;;;;;;;;20.94;44.14;95407.69;10506885;28;3073;-45
2022/09/30 23:32:33;;;;;;;;;;;;;;;20.94;44.09;95422.72;10517571;28;3336;-43
2022/09/30 23:37:34;;;;;;;;;;;;;;;20.92;44.30;95420.38;10510728;28;2995;-45
2022/09/30 23:42:35;;;;;;;;;;;;;;;20.93;44.37;95421.16;10516732;28;3415;-45
2022/09/30 23:47:36;;;;;;;;;;;;;;;20.92;44.03;95420.38;10525056;28;3228;-45
2022/09/30 23:52:36;;;;;;;;;;;;;;;20.89;44.05;95413.03;10517613;28;3374;-46
2022/09/30 23:57:36;;;;;;;;;;;;;;;20.88;43.98;95419.38;10524189;28;2948;-42
